createdAt,value
2018-05-15T05:00:55.677Z,10.63
2018-05-15T05:03:28.942Z,10.60
2018-05-15T05:06:02.227Z,10.00
2018-05-15T05:08:35.480Z,8.60
2018-05-15T05:11:09.529Z,8.77
2018-05-15T05:13:42.789Z,8.67
2018-05-15T05:16:16.829Z,9.00
2018-05-15T05:18:50.083Z,7.53
2018-05-15T05:21:24.138Z,8.03
2018-05-15T05:23:57.386Z,7.60
2018-05-15T05:26:30.651Z,6.90
2018-05-15T05:29:03.910Z,7.63
2018-05-15T05:31:37.184Z,7.47
2018-05-15T05:34:11.206Z,6.37
2018-05-15T05:36:44.482Z,6.50
2018-05-15T05:39:17.736Z,6.33
2018-05-15T05:41:51.004Z,6.47
2018-05-15T05:44:24.254Z,6.10
2018-05-15T05:46:57.524Z,6.40
2018-05-15T05:49:30.792Z,6.37
2018-05-15T05:52:04.117Z,5.63
2018-05-15T05:54:37.328Z,5.53
2018-05-15T05:57:10.600Z,5.40
2018-05-15T05:59:43.853Z,5.17
2018-05-15T06:02:17.124Z,5.30
2018-05-15T06:04:50.385Z,5.73
2018-05-15T06:07:23.715Z,4.90
2018-05-15T06:09:56.921Z,5.60
2018-05-15T06:12:30.192Z,5.40
2018-05-15T06:15:03.448Z,5.27
2018-05-15T06:17:36.733Z,5.27
2018-05-15T06:20:09.978Z,5.60
2018-05-15T06:22:43.260Z,4.77
2018-05-15T06:25:16.509Z,4.63
2018-05-15T06:27:49.785Z,4.50
2018-05-15T06:30:23.045Z,5.03
2018-05-15T06:32:57.090Z,4.83
2018-05-15T06:35:30.344Z,5.10
2018-05-15T06:38:03.619Z,4.67
2018-05-15T06:40:36.880Z,4.70
2018-05-15T06:43:10.171Z,5.03
2018-05-15T06:45:43.416Z,5.47
2018-05-15T06:48:16.684Z,4.57
2018-05-15T06:50:49.946Z,5.10
2018-05-15T06:53:23.223Z,5.27
2018-05-15T06:55:56.475Z,4.90
2018-05-15T06:58:29.752Z,4.97
2018-05-15T07:01:03.009Z,4.40
2018-05-15T07:03:37.923Z,4.30
2018-05-15T07:06:11.330Z,5.07
2018-05-15T07:08:44.928Z,5.00
2018-05-15T07:11:18.345Z,4.87
2018-05-15T07:13:52.689Z,5.20
2018-05-15T07:16:25.964Z,4.57
2018-05-15T07:18:59.244Z,4.90
2018-05-15T07:21:33.273Z,4.73
2018-05-15T07:24:06.536Z,4.87
2018-05-15T07:26:40.567Z,5.50
2018-05-15T07:29:13.843Z,4.73
2018-05-15T07:31:47.100Z,4.70
2018-05-15T07:34:20.376Z,5.07
2018-05-15T07:36:53.650Z,5.10
2018-05-15T07:39:27.159Z,5.00
2018-05-15T07:42:00.412Z,4.50
2018-05-15T07:44:34.448Z,5.10
2018-05-15T07:47:07.707Z,4.90
2018-05-15T07:49:40.979Z,5.17
2018-05-15T07:52:14.244Z,5.53
2018-05-15T07:54:47.532Z,5.27
2018-05-15T07:57:20.780Z,4.70
2018-05-15T07:59:54.067Z,4.80
2018-05-15T08:02:27.324Z,4.73
2018-05-15T08:05:00.594Z,4.60
2018-05-15T08:07:33.854Z,3.80
2018-05-15T08:10:07.900Z,3.97
2018-05-15T08:12:41.170Z,4.00
2018-05-15T08:15:14.445Z,4.27
2018-05-15T08:17:47.703Z,4.53
2018-05-15T08:20:20.977Z,4.67
2018-05-15T08:22:54.220Z,3.83
2018-05-15T08:25:27.492Z,5.00
2018-05-15T08:28:00.751Z,4.87
2018-05-15T08:30:34.019Z,4.70
2018-05-15T08:33:07.276Z,4.10
2018-05-15T08:35:40.557Z,5.20
2018-05-15T08:38:13.803Z,4.93
2018-05-15T08:40:47.080Z,5.03
2018-05-15T08:43:20.335Z,4.50
2018-05-15T08:45:53.608Z,4.37
2018-05-15T08:48:26.877Z,4.50
2018-05-15T08:51:00.147Z,4.53
2018-05-15T08:53:33.408Z,4.47
2018-05-15T08:56:06.686Z,4.70
2018-05-15T08:58:40.741Z,4.80
2018-05-15T09:01:14.015Z,4.77
2018-05-15T09:03:47.370Z,5.37
2018-05-15T09:06:21.423Z,5.43
2018-05-15T09:08:54.683Z,5.57
2018-05-15T09:11:28.751Z,5.07
2018-05-15T09:14:02.009Z,6.00
2018-05-15T09:16:35.283Z,5.60
2018-05-15T09:19:09.335Z,5.30
2018-05-15T09:21:43.331Z,5.57
2018-05-15T09:24:16.589Z,5.90
2018-05-15T09:26:49.863Z,6.40
2018-05-15T09:29:23.139Z,6.23
2018-05-15T09:31:56.392Z,5.03
2018-05-15T09:34:29.656Z,5.10
2018-05-15T09:37:02.939Z,5.33
2018-05-15T09:39:36.203Z,5.60
2018-05-15T09:42:09.565Z,5.63
2018-05-15T09:44:42.727Z,5.17
2018-05-15T09:47:16.012Z,5.63
2018-05-15T09:49:49.277Z,5.90
2018-05-15T09:52:22.600Z,6.17
2018-05-15T09:54:55.812Z,5.43
2018-05-15T09:57:29.079Z,5.83
2018-05-15T10:00:02.340Z,6.00
2018-05-15T10:02:35.615Z,5.77
2018-05-15T10:05:09.650Z,5.47
2018-05-15T10:07:46.994Z,6.43
2018-05-15T10:10:20.186Z,6.40
2018-05-15T10:12:54.232Z,6.10
2018-05-15T10:15:27.489Z,6.47
2018-05-15T10:18:00.769Z,6.90
2018-05-15T10:20:34.024Z,6.53
2018-05-15T10:23:07.407Z,6.60
2018-05-15T10:25:40.682Z,6.03
2018-05-15T10:28:14.099Z,7.27
2018-05-15T10:30:47.355Z,7.40
2018-05-15T10:33:20.635Z,7.57
2018-05-15T10:35:53.888Z,6.50
2018-05-15T10:38:27.171Z,6.03
2018-05-15T10:41:00.441Z,5.67
2018-05-15T10:43:33.964Z,5.47
2018-05-15T10:46:07.228Z,4.10
2018-05-15T10:48:40.509Z,4.10
2018-05-15T10:51:13.762Z,4.20
2018-05-15T10:53:47.036Z,4.33
2018-05-15T10:56:21.120Z,3.60
2018-05-15T10:58:54.387Z,3.50
2018-05-15T11:01:28.429Z,4.10
2018-05-15T11:04:01.732Z,4.60
2018-05-15T11:06:34.990Z,4.83
2018-05-15T11:09:08.261Z,5.20
2018-05-15T11:11:41.514Z,5.10
2018-05-15T11:14:15.564Z,5.23
2018-05-15T11:16:48.828Z,5.10
2018-05-15T11:19:40.604Z,4.97
2018-05-15T11:22:31.863Z,5.53
2018-05-15T11:25:05.130Z,5.53
2018-05-15T11:27:39.168Z,6.07
2018-05-15T11:30:12.464Z,5.47
2018-05-15T11:32:45.721Z,4.80
2018-05-15T11:35:18.993Z,5.63
2018-05-15T11:37:52.255Z,5.17
2018-05-15T11:40:26.301Z,6.07
2018-05-15T11:42:59.547Z,6.03
2018-05-15T11:45:33.590Z,6.27
2018-05-15T11:48:07.442Z,6.60
2018-05-15T11:50:41.195Z,5.93
2018-05-15T11:53:14.010Z,5.73
2018-05-15T11:55:46.644Z,6.40
2018-05-15T11:58:19.942Z,6.27
2018-05-15T12:00:53.175Z,6.20
2018-05-15T12:03:26.429Z,6.00
2018-05-15T12:06:00.468Z,7.30
2018-05-15T12:08:33.732Z,7.10
2018-05-15T12:11:07.772Z,5.77
2018-05-15T12:13:41.024Z,6.17
2018-05-15T12:16:14.305Z,6.73
2018-05-15T12:18:47.563Z,7.87
2018-05-15T12:21:20.840Z,10.13
2018-05-15T12:23:54.099Z,6.57
2018-05-15T12:26:27.375Z,6.20
2018-05-15T12:29:00.631Z,5.17
2018-05-15T12:31:33.910Z,5.83
2018-05-15T12:34:07.170Z,6.70
2018-05-15T12:36:40.435Z,4.80
2018-05-15T12:39:13.689Z,5.20
2018-05-15T12:41:47.112Z,4.83
2018-05-15T12:44:20.996Z,4.10
2018-05-15T12:46:54.271Z,3.63
2018-05-15T12:49:28.283Z,6.20
2018-05-15T12:52:01.560Z,6.87
2018-05-15T12:54:34.816Z,4.00
2018-05-15T12:57:08.104Z,4.60
2018-05-15T12:59:41.359Z,5.47
2018-05-15T13:02:14.636Z,5.33
2018-05-15T13:04:47.897Z,6.00
2018-05-15T13:07:21.167Z,5.60
2018-05-15T13:09:54.432Z,4.73
2018-05-15T13:12:28.468Z,4.53
2018-05-15T13:15:01.731Z,4.73
2018-05-15T13:17:35.013Z,3.97
2018-05-15T13:20:08.301Z,4.10
2018-05-15T13:22:41.556Z,4.73
2018-05-15T13:25:14.840Z,5.27
2018-05-15T13:27:48.093Z,5.03
2018-05-15T13:30:21.355Z,4.97
2018-05-15T13:32:54.630Z,5.40
2018-05-15T13:35:28.022Z,5.20
2018-05-15T13:38:01.169Z,4.80
2018-05-15T13:40:34.447Z,4.83
2018-05-15T13:43:07.699Z,4.63
2018-05-15T13:45:40.968Z,4.50
2018-05-15T13:48:14.229Z,4.67
2018-05-15T13:50:47.504Z,4.33
2018-05-15T13:53:20.755Z,4.07
2018-05-15T13:55:54.033Z,4.40
2018-05-15T13:58:27.283Z,4.70
2018-05-15T14:01:00.560Z,4.07
2018-05-15T14:03:33.812Z,4.17
2018-05-15T14:06:07.096Z,4.60
2018-05-15T14:08:40.363Z,3.70
2018-05-15T14:11:13.631Z,3.70
2018-05-15T14:13:46.888Z,3.83
2018-05-15T14:16:20.156Z,3.07
2018-05-15T14:18:54.175Z,3.07
2018-05-15T14:21:27.441Z,3.20
2018-05-15T14:24:00.696Z,2.97
2018-05-15T14:26:34.740Z,2.83
2018-05-15T14:29:08.016Z,4.47
2018-05-15T14:31:41.274Z,3.80
2018-05-15T14:34:14.544Z,3.10
2018-05-15T14:36:47.799Z,2.90
2018-05-15T14:39:21.075Z,2.80
2018-05-15T14:42:12.673Z,2.43
2018-05-15T14:44:45.949Z,2.37
2018-05-15T14:47:19.198Z,2.07
2018-05-15T14:49:52.473Z,1.83
2018-05-15T14:52:25.724Z,1.70
2018-05-15T14:54:59.001Z,1.80
2018-05-15T14:57:32.245Z,1.70
2018-05-15T15:00:06.300Z,1.97
2018-05-15T15:02:39.549Z,1.77
2018-05-15T15:05:12.824Z,1.97
2018-05-15T15:07:46.145Z,2.17
2018-05-15T15:10:19.355Z,2.00
2018-05-15T15:12:53.372Z,1.90
2018-05-15T15:15:26.642Z,2.10
2018-05-15T15:17:59.889Z,2.13
2018-05-15T15:20:33.936Z,2.03
2018-05-15T15:23:07.197Z,1.97
2018-05-15T15:25:40.468Z,1.67
2018-05-15T15:28:13.721Z,1.80
2018-05-15T15:30:47.008Z,1.80
2018-05-15T15:33:20.261Z,1.70
2018-05-15T15:35:53.534Z,1.67
2018-05-15T15:38:26.797Z,1.90
2018-05-15T15:41:00.068Z,1.80
2018-05-15T15:43:33.343Z,1.40
2018-05-15T15:46:06.591Z,1.90
2018-05-15T15:48:40.623Z,1.50
2018-05-15T15:51:13.897Z,1.37
2018-05-15T15:53:47.926Z,2.20
2018-05-15T15:56:21.212Z,1.93
2018-05-15T15:58:55.236Z,2.20
2018-05-15T16:01:28.525Z,2.37
2018-05-15T16:04:01.783Z,1.80
2018-05-15T16:06:35.052Z,1.97
2018-05-15T16:09:08.329Z,2.13
2018-05-15T16:11:41.591Z,1.80
2018-05-15T16:14:15.624Z,1.80
2018-05-15T16:16:48.901Z,1.80
2018-05-15T16:19:22.160Z,1.87
2018-05-15T16:21:55.435Z,2.00
2018-05-15T16:24:28.688Z,2.43
2018-05-15T16:27:01.964Z,2.60
2018-05-15T16:29:35.227Z,2.50
2018-05-15T16:32:08.509Z,2.50
2018-05-15T16:34:41.761Z,3.10
2018-05-15T16:37:15.040Z,2.70
2018-05-15T16:39:49.069Z,2.83
2018-05-15T16:42:22.339Z,2.60
2018-05-15T16:44:55.792Z,2.47
2018-05-15T16:47:29.146Z,2.90
2018-05-15T16:50:02.329Z,2.60
2018-05-15T16:52:36.373Z,2.63
2018-05-15T16:55:09.623Z,2.50
2018-05-15T16:57:43.668Z,2.97
2018-05-15T17:00:16.956Z,3.00
2018-05-15T17:02:50.219Z,3.00
2018-05-15T17:05:23.492Z,2.80
2018-05-15T17:07:56.782Z,2.60
2018-05-15T17:10:30.044Z,2.83
2018-05-15T17:13:03.295Z,3.23
2018-05-15T17:15:36.579Z,7.13
2018-05-15T17:18:09.841Z,6.90
2018-05-15T17:20:43.117Z,7.20
2018-05-15T17:23:16.387Z,7.07
2018-05-15T17:25:50.421Z,7.37
2018-05-15T17:28:23.672Z,8.13
2018-05-15T17:30:56.968Z,8.03
2018-05-15T17:33:30.229Z,8.37
2018-05-15T17:36:03.513Z,7.67
2018-05-15T17:38:36.763Z,7.53
2018-05-15T17:41:10.813Z,8.17
2018-05-15T17:43:44.074Z,7.30
2018-05-15T17:46:18.128Z,7.60
2018-05-15T17:48:51.385Z,8.47
2018-05-15T17:51:25.427Z,10.93
2018-05-15T17:53:58.699Z,9.87
2018-05-15T17:56:34.064Z,9.43
2018-05-15T17:59:07.326Z,9.73
2018-05-15T18:01:41.380Z,11.03
2018-05-15T18:04:14.758Z,11.33
2018-05-15T18:06:48.037Z,10.63
2018-05-15T18:09:21.313Z,10.50
2018-05-15T18:11:55.358Z,10.33
2018-05-15T18:14:28.864Z,7.47
2018-05-15T18:17:02.635Z,6.87
2018-05-15T18:19:35.907Z,6.00
2018-05-15T18:22:09.234Z,5.77
2018-05-15T18:24:47.074Z,5.20
2018-05-15T18:27:20.368Z,4.97
2018-05-15T18:29:53.617Z,5.70
2018-05-15T18:32:26.899Z,5.33
2018-05-15T18:35:00.156Z,5.50
2018-05-15T18:37:33.434Z,4.43
2018-05-15T18:40:06.693Z,4.90
2018-05-15T18:42:39.967Z,4.50
2018-05-15T18:45:13.232Z,4.00
2018-05-15T18:47:46.757Z,3.63
2018-05-15T18:50:20.102Z,3.50
2018-05-15T18:52:53.391Z,3.23
2018-05-15T18:55:26.651Z,3.20
2018-05-15T18:58:00.026Z,2.93
2018-05-15T19:00:33.181Z,3.47
2018-05-15T19:03:06.471Z,3.77
2018-05-15T19:05:40.496Z,3.20
2018-05-15T19:08:13.768Z,3.87
2018-05-15T19:10:47.792Z,4.57
2018-05-15T19:13:21.117Z,3.60
2018-05-15T19:15:54.380Z,4.10
2018-05-15T19:18:27.665Z,3.90
2018-05-15T19:21:01.697Z,4.23
2018-05-15T19:23:34.977Z,3.93
2018-05-15T19:26:09.000Z,3.77
2018-05-15T19:28:42.308Z,3.40
2018-05-15T19:31:19.060Z,4.00
2018-05-15T19:33:52.365Z,3.73
2018-05-15T19:36:31.577Z,4.00
2018-05-15T19:39:06.537Z,4.00
2018-05-15T19:41:39.816Z,3.87
2018-05-15T19:44:13.112Z,4.27
2018-05-15T19:46:46.369Z,4.20
2018-05-15T19:49:19.667Z,4.50
2018-05-15T19:51:53.003Z,4.03
2018-05-15T19:54:26.204Z,4.00
2018-05-15T19:56:59.459Z,3.90
2018-05-15T19:59:32.744Z,4.67
2018-05-15T20:02:06.000Z,4.10
2018-05-15T20:04:39.281Z,3.90
2018-05-15T20:07:12.539Z,4.23
2018-05-15T20:09:45.805Z,4.30
2018-05-15T20:12:19.062Z,4.30
2018-05-15T20:14:52.344Z,4.40
2018-05-15T20:17:25.603Z,4.13
2018-05-15T20:19:58.873Z,4.53
2018-05-15T20:22:32.136Z,4.67
2018-05-15T20:25:05.429Z,5.77
2018-05-15T20:27:38.680Z,5.10
2018-05-15T20:30:12.923Z,4.80
2018-05-15T20:32:46.189Z,5.00
2018-05-15T20:35:19.586Z,5.43
2018-05-15T20:37:52.843Z,5.90
2018-05-15T20:40:26.120Z,5.47
2018-05-15T20:42:59.372Z,5.60
2018-05-15T20:45:32.677Z,5.50
2018-05-15T20:48:06.706Z,5.27
2018-05-15T20:50:40.019Z,5.60
2018-05-15T20:53:13.268Z,6.03
2018-05-15T20:55:47.311Z,6.17
2018-05-15T20:58:20.595Z,5.93
2018-05-15T21:00:53.877Z,7.03
2018-05-15T21:03:27.908Z,6.57
2018-05-15T21:06:01.180Z,6.43
2018-05-15T21:08:35.200Z,6.93
2018-05-15T21:11:09.243Z,7.00
2018-05-15T21:13:42.495Z,6.97
2018-05-15T21:16:16.532Z,7.10
2018-05-15T21:18:49.792Z,6.83
2018-05-15T21:21:23.083Z,7.00
2018-05-15T21:23:56.331Z,6.93
2018-05-15T21:26:29.616Z,7.53
2018-05-15T21:29:02.869Z,6.63
2018-05-15T21:31:36.148Z,7.20
2018-05-15T21:34:09.395Z,6.97
2018-05-15T21:36:42.754Z,8.40
2018-05-15T21:39:16.697Z,8.63
2018-05-15T21:41:49.975Z,7.53
2018-05-15T21:44:24.071Z,7.17
2018-05-15T21:46:57.282Z,8.13
2018-05-15T21:49:31.309Z,7.87
2018-05-15T21:52:04.591Z,8.30
2018-05-15T21:54:37.849Z,7.47
2018-05-15T21:57:11.125Z,7.23
2018-05-15T21:59:44.389Z,8.20
2018-05-15T22:02:17.671Z,7.53
2018-05-15T22:04:50.929Z,8.00
2018-05-15T22:07:24.211Z,7.53
2018-05-15T22:09:57.461Z,8.10
2018-05-15T22:12:48.400Z,8.10
2018-05-15T22:15:39.544Z,7.87
2018-05-15T22:18:30.630Z,7.70
2018-05-15T22:21:21.680Z,7.77
2018-05-15T22:23:54.912Z,7.73
2018-05-15T22:26:28.197Z,8.23
2018-05-15T22:29:01.463Z,8.77
